Time;durP1;ratioP1;P1;durP2;ratioP2;P2;SDS_P1;SDS_P2;PMS_P1;PMS_P2;Temp;Humidity;BMP_temperature;BMP_pressure;BME280_temperature;BME280_humidity;BME280_pressure;Samples;Min_cycle;Max_cycle;Signal;HPM_P1;HPM_P2
2022/05/05 00:02:26;;;;;;;15.00;9.03;;;15.60;79.20;;;;;;5070004;28;20196;-79
2022/05/05 00:04:54;;;;;;;16.47;8.47;;;15.60;79.30;;;;;;5076491;28;20209;-80
2022/05/05 00:07:22;;;;;;;16.57;9.17;;;15.50;79.40;;;;;;5084345;28;20212;-78
2022/05/05 00:09:51;;;;;;;12.47;8.30;;;15.50;79.30;;;;;;5064079;28;20194;-80
2022/05/05 00:15:08;;;;;;;10.47;7.97;;;15.50;79.50;;;;;;5064015;28;20229;-79
2022/05/05 00:17:36;;;;;;;14.37;8.87;;;15.50;79.40;;;;;;5077136;28;20193;-80
2022/05/05 00:20:05;;;;;;;13.70;8.53;;;15.60;79.40;;;;;;5072569;28;20198;-80
2022/05/05 00:22:34;;;;;;;11.90;8.47;;;15.60;80.20;;;;;;5067071;28;20187;-78
2022/05/05 00:25:02;;;;;;;13.20;8.70;;;15.50;79.30;;;;;;5066200;28;20675;-80
2022/05/05 00:27:32;;;;;;;13.47;7.87;;;15.50;79.30;;;;;;5065351;28;20198;-79
2022/05/05 00:30:00;;;;;;;11.60;8.00;;;15.50;79.40;;;;;;5075051;28;20198;-78
2022/05/05 00:32:28;;;;;;;12.73;8.40;;;15.50;79.40;;;;;;5071708;28;20213;-79
2022/05/05 00:34:56;;;;;;;12.00;8.50;;;15.50;79.40;;;;;;5069968;28;21901;-79
2022/05/05 00:37:25;;;;;;;13.83;7.17;;;15.50;79.40;;;;;;5073143;28;20186;-79
2022/05/05 00:39:53;;;;;;;16.07;8.07;;;15.50;79.50;;;;;;5063568;28;20194;-79
2022/05/05 00:42:22;;;;;;;12.47;8.27;;;15.50;79.40;;;;;;5070508;28;20244;-80
2022/05/05 00:44:53;;;;;;;14.73;8.30;;;15.40;79.40;;;;;;5078706;28;20627;-80
2022/05/05 00:47:22;;;;;;;14.00;7.90;;;15.50;79.40;;;;;;5066229;28;20205;-79
2022/05/05 00:49:52;;;;;;;12.17;7.67;;;15.40;79.40;;;;;;5078096;28;20222;-79
2022/05/05 00:52:21;;;;;;;13.07;8.17;;;15.40;79.50;;;;;;5078352;28;20280;-79
2022/05/05 00:54:49;;;;;;;11.70;7.30;;;15.40;79.50;;;;;;5077394;28;20186;-79
2022/05/05 00:57:18;;;;;;;11.47;7.90;;;15.40;79.60;;;;;;5065460;28;20221;-79
2022/05/05 00:59:47;;;;;;;14.10;7.53;;;15.40;79.50;;;;;;5065091;28;20771;-79
2022/05/05 01:02:17;;;;;;;10.63;7.27;;;15.40;79.50;;;;;;5077387;28;20201;-79
2022/05/05 01:04:47;;;;;;;12.00;7.97;;;15.40;79.50;;;;;;5073679;28;20257;-79
2022/05/05 01:07:16;;;;;;;11.50;7.47;;;15.30;79.50;;;;;;5069623;28;20217;-79
2022/05/05 01:09:44;;;;;;;11.93;6.83;;;15.30;79.80;;;;;;5074154;28;20198;-79
2022/05/05 01:12:13;;;;;;;15.70;7.63;;;15.30;79.80;;;;;;5072366;28;20220;-79
2022/05/05 01:14:41;;;;;;;11.63;8.27;;;15.30;79.80;;;;;;5070627;28;20225;-79
2022/05/05 01:17:10;;;;;;;14.23;7.37;;;15.30;79.90;;;;;;5077385;28;20876;-80
2022/05/05 01:19:40;;;;;;;14.53;8.33;;;15.20;79.90;;;;;;5065827;28;20280;-79
2022/05/05 01:22:09;;;;;;;14.67;8.00;;;15.20;79.90;;;;;;5065335;28;20198;-78
2022/05/05 01:30:10;;;;;;;13.73;8.20;;;15.10;79.90;;;;;;5075672;28;20208;-80
2022/05/05 01:32:38;;;;;;;16.17;8.77;;;15.10;80.10;;;;;;5073704;28;20190;-80
2022/05/05 01:35:07;;;;;;;12.53;7.83;;;15.10;80.00;;;;;;5070541;28;20210;-79
2022/05/05 01:37:37;;;;;;;16.03;8.47;;;15.00;80.00;;;;;;5070072;28;20208;-80
2022/05/05 01:40:06;;;;;;;14.90;8.83;;;15.00;80.00;;;;;;5078219;28;20193;-79
2022/05/05 01:42:34;;;;;;;13.20;8.37;;;15.00;80.00;;;;;;5074979;28;20201;-80
2022/05/05 01:45:06;;;;;;;13.37;8.63;;;15.00;80.10;;;;;;5066865;28;20950;-79
2022/05/05 01:47:34;;;;;;;14.30;8.47;;;14.90;80.10;;;;;;5063919;28;20667;-79
2022/05/05 01:50:03;;;;;;;13.70;8.93;;;14.90;80.20;;;;;;5074194;28;20233;-80
2022/05/05 01:52:32;;;;;;;13.20;8.37;;;14.90;80.30;;;;;;5067629;28;20247;-79
2022/05/05 01:55:01;;;;;;;13.70;7.90;;;14.80;80.30;;;;;;5067932;28;20198;-79
2022/05/05 01:57:30;;;;;;;12.20;7.93;;;14.80;80.40;;;;;;5064498;28;20202;-82
2022/05/05 02:00:00;;;;;;;14.97;8.10;;;14.80;80.40;;;;;;5071961;28;20190;-79
2022/05/05 02:02:29;;;;;;;13.90;8.90;;;14.80;80.50;;;;;;5082642;28;20871;-79
2022/05/05 02:04:57;;;;;;;11.60;7.83;;;14.80;80.60;;;;;;5073082;28;20279;-79
2022/05/05 02:07:25;;;;;;;13.97;8.57;;;14.70;80.50;;;;;;5063951;28;20198;-79
2022/05/05 02:09:54;;;;;;;15.23;8.57;;;14.70;80.50;;;;;;5071778;28;20673;-79
2022/05/05 02:12:24;;;;;;;13.87;8.57;;;14.70;80.60;;;;;;5074304;28;20246;-80
2022/05/05 02:14:53;;;;;;;14.17;8.80;;;14.70;80.60;;;;;;5045007;28;20223;-80
2022/05/05 02:17:21;;;;;;;11.93;7.93;;;14.70;80.60;;;;;;5061804;28;20205;-80
2022/05/05 02:19:49;;;;;;;12.60;7.63;;;14.70;80.70;;;;;;5057114;28;20203;-80
2022/05/05 02:22:18;;;;;;;13.90;8.57;;;14.70;80.70;;;;;;5049061;28;20714;-79
2022/05/05 02:24:47;;;;;;;15.83;8.77;;;14.70;80.80;;;;;;5051575;28;20222;-80
2022/05/05 02:27:15;;;;;;;17.23;9.20;;;14.70;80.80;;;;;;5047852;28;20199;-80
2022/05/05 02:29:46;;;;;;;14.25;8.95;;;14.70;80.90;;;;;;5050383;28;20443;-80
2022/05/05 02:32:14;;;;;;;14.37;8.30;;;14.60;81.80;;;;;;5057446;28;20209;-80
2022/05/05 02:34:43;;;;;;;11.37;8.37;;;14.60;81.60;;;;;;5045034;28;20513;-79
2022/05/05 02:39:58;;;;;;;14.30;8.93;;;14.60;81.60;;;;;;5058719;28;20198;-80
2022/05/05 02:42:27;;;;;;;16.13;8.93;;;14.60;81.60;;;;;;5061561;28;20727;-80
2022/05/05 02:44:56;;;;;;;11.70;8.67;;;14.60;81.50;;;;;;5052758;28;20225;-79
2022/05/05 02:47:25;;;;;;;15.17;8.83;;;14.60;81.50;;;;;;5045538;28;20204;-80
2022/05/05 02:49:53;;;;;;;12.37;8.47;;;14.60;81.40;;;;;;5052381;28;20238;-77
2022/05/05 02:52:22;;;;;;;14.13;8.30;;;14.60;81.40;;;;;;5050887;28;20187;-80
2022/05/05 02:54:51;;;;;;;15.77;8.47;;;14.60;81.30;;;;;;5051355;28;20191;-79
2022/05/05 02:57:21;;;;;;;14.33;8.30;;;14.60;81.30;;;;;;5044849;28;20199;-80
2022/05/05 02:59:49;;;;;;;15.83;8.90;;;14.60;81.30;;;;;;5052491;28;20194;-80
2022/05/05 03:02:19;;;;;;;17.33;8.00;;;14.60;81.40;;;;;;5053601;28;20197;-79
2022/05/05 03:04:50;;;;;;;12.70;8.07;;;14.60;81.50;;;;;;5056322;28;20206;-80
2022/05/05 03:07:20;;;;;;;13.73;8.70;;;14.60;81.50;;;;;;5054403;28;20225;-80
2022/05/05 03:09:48;;;;;;;13.37;7.97;;;14.60;81.50;;;;;;5062979;28;20225;-78
2022/05/05 03:12:17;;;;;;;14.50;8.53;;;14.60;81.50;;;;;;5056493;28;20297;-80
2022/05/05 03:14:47;;;;;;;16.17;7.87;;;14.60;81.50;;;;;;5059887;28;20222;-79
2022/05/05 03:17:15;;;;;;;14.17;8.50;;;14.60;81.50;;;;;;5053342;28;20195;-80
2022/05/05 03:19:45;;;;;;;17.37;8.20;;;14.60;81.50;;;;;;5063963;28;20209;-80
2022/05/05 03:22:13;;;;;;;14.70;7.83;;;14.70;81.70;;;;;;5055318;28;20183;-80
2022/05/05 03:24:42;;;;;;;15.67;8.47;;;14.70;81.70;;;;;;5063074;28;20197;-80
2022/05/05 03:27:10;;;;;;;14.17;8.43;;;14.70;81.60;;;;;;5057670;28;21450;-80
2022/05/05 03:29:38;;;;;;;11.80;7.90;;;14.70;81.70;;;;;;5055609;28;20194;-79
2022/05/05 03:32:07;;;;;;;11.83;8.00;;;14.70;81.80;;;;;;5054268;28;20199;-80
2022/05/05 03:34:36;;;;;;;12.77;8.07;;;14.70;82.10;;;;;;5059763;28;20663;-80
2022/05/05 03:37:06;;;;;;;15.80;8.00;;;14.70;82.20;;;;;;5048924;28;20186;-80
2022/05/05 03:39:37;;;;;;;13.80;7.87;;;14.70;82.40;;;;;;5055237;28;20187;-78
2022/05/05 03:42:06;;;;;;;11.33;7.97;;;14.70;82.50;;;;;;5057152;28;20675;-80
2022/05/05 03:44:35;;;;;;;12.20;7.57;;;14.70;82.70;;;;;;5060403;28;20676;-80
2022/05/05 03:47:03;;;;;;;10.90;7.53;;;14.70;82.60;;;;;;5049648;28;20229;-80
2022/05/05 03:49:38;;;;;;;12.07;8.03;;;14.80;82.90;;;;;;5052358;28;20210;-80
2022/05/05 03:52:08;;;;;;;10.27;7.00;;;14.80;83.30;;;;;;5058981;28;20194;-81
2022/05/05 03:54:36;;;;;;;14.83;8.60;;;14.80;83.40;;;;;;5044948;28;20213;-79
2022/05/05 03:57:05;;;;;;;13.43;8.30;;;14.80;83.40;;;;;;5065542;28;20194;-80
2022/05/05 03:59:33;;;;;;;14.10;8.27;;;14.80;83.60;;;;;;5050799;28;20195;-80
2022/05/05 04:02:02;;;;;;;16.63;8.63;;;14.80;83.70;;;;;;5048308;28;20187;-79
2022/05/05 04:04:30;;;;;;;12.83;8.47;;;14.80;84.00;;;;;;5044581;28;20244;-81
2022/05/05 04:06:58;;;;;;;12.77;8.50;;;14.80;84.10;;;;;;5048464;28;20218;-80
2022/05/05 04:09:28;;;;;;;14.37;8.83;;;14.80;85.00;;;;;;5047154;28;20191;-79
2022/05/05 04:11:57;;;;;;;11.83;8.57;;;14.80;84.40;;;;;;5047884;28;20853;-80
2022/05/05 04:14:27;;;;;;;14.83;9.10;;;14.80;84.30;;;;;;5058238;28;20229;-81
2022/05/05 04:17:00;;;;;;;17.07;9.27;;;14.80;84.40;;;;;;5053700;28;20204;-79
2022/05/05 04:19:28;;;;;;;15.30;8.93;;;14.90;84.40;;;;;;5061538;28;20194;-79
2022/05/05 04:21:56;;;;;;;14.27;8.83;;;14.90;84.50;;;;;;5065980;28;20201;-80
2022/05/05 04:24:25;;;;;;;14.90;8.50;;;14.90;84.50;;;;;;5052525;28;20805;-80
2022/05/05 04:26:55;;;;;;;13.43;8.60;;;14.90;84.50;;;;;;5054088;28;20214;-80
2022/05/05 04:29:23;;;;;;;12.70;8.40;;;15.00;84.50;;;;;;5062482;28;20195;-80
2022/05/05 04:31:51;;;;;;;18.10;8.37;;;15.00;84.60;;;;;;5048795;28;20931;-80
2022/05/05 04:34:20;;;;;;;15.37;8.80;;;15.00;84.50;;;;;;5055478;28;20191;-79
2022/05/05 04:36:50;;;;;;;18.47;8.70;;;15.00;84.40;;;;;;5064669;28;20679;-80
2022/05/05 04:39:19;;;;;;;13.63;8.20;;;15.00;84.30;;;;;;5054803;28;20549;-79
2022/05/05 04:41:47;;;;;;;18.13;8.23;;;15.10;84.30;;;;;;5048467;28;20202;-80
2022/05/05 04:44:17;;;;;;;16.97;8.93;;;15.20;84.10;;;;;;5047437;28;20210;-79
2022/05/05 04:46:45;;;;;;;14.57;8.30;;;15.20;84.10;;;;;;5061631;28;20218;-80
2022/05/05 04:49:15;;;;;;;14.33;8.87;;;15.20;84.00;;;;;;5054524;28;20256;-80
2022/05/05 04:51:44;;;;;;;17.63;8.50;;;15.30;83.90;;;;;;5055190;28;20191;-80
2022/05/05 04:54:13;;;;;;;21.33;9.10;;;15.40;83.90;;;;;;5063359;28;20202;-81
2022/05/05 04:56:41;;;;;;;16.37;9.00;;;15.40;83.80;;;;;;5062361;28;20194;-79
2022/05/05 04:59:10;;;;;;;14.37;8.17;;;15.50;83.90;;;;;;5056194;28;20202;-80
2022/05/05 05:01:40;;;;;;;14.60;8.87;;;15.50;83.80;;;;;;5056086;28;20190;-80
2022/05/05 05:04:08;;;;;;;13.73;9.17;;;15.60;83.70;;;;;;5065711;28;20190;-80
2022/05/05 05:06:36;;;;;;;15.17;8.43;;;15.70;83.70;;;;;;5058633;28;20226;-79
2022/05/05 05:09:05;;;;;;;15.83;8.50;;;15.70;83.60;;;;;;5058103;28;20260;-80
2022/05/05 05:11:33;;;;;;;12.53;8.10;;;15.70;83.50;;;;;;5060965;28;20190;-79
2022/05/05 05:14:01;;;;;;;15.73;8.30;;;15.80;83.50;;;;;;5053322;28;20249;-79
2022/05/05 05:16:30;;;;;;;16.87;8.90;;;15.80;83.50;;;;;;5060858;28;20205;-80
2022/05/05 05:19:10;;;;;;;17.67;8.27;;;15.90;83.50;;;;;;5045884;28;20195;-79
2022/05/05 05:21:45;;;;;;;13.57;8.27;;;15.90;83.20;;;;;;5058494;28;20855;-80
2022/05/05 05:24:14;;;;;;;13.73;8.00;;;16.00;83.10;;;;;;5048662;28;20202;-81
2022/05/05 05:26:42;;;;;;;12.77;7.77;;;16.10;83.00;;;;;;5052970;28;20214;-81
2022/05/05 05:29:10;;;;;;;11.97;6.90;;;16.10;82.90;;;;;;5057398;28;22616;-81
2022/05/05 05:31:39;;;;;;;17.07;7.27;;;16.20;82.80;;;;;;5047882;28;20194;-81
2022/05/05 05:34:07;;;;;;;11.20;7.23;;;16.20;82.60;;;;;;5046833;28;20225;-81
2022/05/05 05:36:39;;;;;;;10.57;5.83;;;16.30;82.50;;;;;;5060198;28;20191;-83
2022/05/05 05:39:08;;;;;;;13.93;5.90;;;16.40;82.30;;;;;;5054325;28;20845;-81
2022/05/05 05:41:36;;;;;;;16.47;5.67;;;16.40;81.80;;;;;;5055330;28;20224;-80
2022/05/05 05:44:05;;;;;;;23.63;8.10;;;16.50;81.40;;;;;;5076469;28;20862;-81
2022/05/05 05:46:34;;;;;;;16.37;7.00;;;16.60;80.90;;;;;;5059446;28;20226;-82
2022/05/05 05:49:02;;;;;;;10.53;5.20;;;16.60;80.40;;;;;;5051210;28;20190;-83
2022/05/05 05:51:32;;;;;;;6.60;4.00;;;16.60;80.10;;;;;;5064198;28;20272;-82
2022/05/05 05:54:02;;;;;;;6.37;3.80;;;16.70;78.40;;;;;;5043915;28;20206;-85
2022/05/05 05:56:31;;;;;;;5.07;3.20;;;16.70;78.10;;;;;;5053334;28;20886;-82
2022/05/05 05:59:01;;;;;;;6.30;3.67;;;16.80;77.20;;;;;;5071298;28;20193;-80
2022/05/05 06:04:15;;;;;;;8.60;5.37;;;16.90;76.40;;;;;;5055087;28;20195;-81
2022/05/05 06:06:43;;;;;;;8.27;4.73;;;17.00;75.20;;;;;;5063104;28;20230;-82
2022/05/05 06:09:15;;;;;;;11.43;5.53;;;17.00;74.30;;;;;;5062943;28;20202;-80
2022/05/05 06:11:44;;;;;;;7.67;4.50;;;17.10;73.40;;;;;;5063832;28;20217;-81
2022/05/05 06:14:14;;;;;;;9.07;5.20;;;17.20;73.80;;;;;;5055687;28;20226;-81
2022/05/05 06:16:42;;;;;;;11.90;5.10;;;17.20;73.80;;;;;;5080916;28;20198;-80
2022/05/05 06:19:11;;;;;;;13.73;5.93;;;17.30;73.80;;;;;;5066117;28;20194;-82
2022/05/05 06:21:39;;;;;;;14.80;5.63;;;17.40;73.80;;;;;;5063340;28;20186;-81
2022/05/05 06:24:07;;;;;;;10.13;4.13;;;17.50;73.30;;;;;;5064141;28;20194;-82
2022/05/05 06:26:37;;;;;;;14.87;4.03;;;17.60;72.90;;;;;;5052838;28;20610;-81
2022/05/05 06:29:05;;;;;;;7.67;3.20;;;17.70;72.70;;;;;;5057131;28;20416;-81
2022/05/05 06:31:34;;;;;;;9.23;3.17;;;17.80;72.40;;;;;;5061571;28;20674;-81
2022/05/05 06:34:05;;;;;;;5.17;2.57;;;17.90;72.20;;;;;;5044561;28;20199;-82
2022/05/05 06:36:33;;;;;;;6.90;3.20;;;18.10;71.60;;;;;;5043135;28;20836;-80
2022/05/05 06:39:01;;;;;;;4.33;2.50;;;18.20;70.50;;;;;;5043850;28;20195;-82
2022/05/05 06:41:30;;;;;;;6.10;3.00;;;18.30;69.30;;;;;;5064531;28;20201;-83
2022/05/05 06:44:00;;;;;;;8.83;3.23;;;18.40;69.40;;;;;;5080179;28;20732;-83
2022/05/05 06:46:30;;;;;;;10.83;2.93;;;18.40;68.00;;;;;;5085288;28;20186;-82
2022/05/05 06:48:58;;;;;;;5.63;2.43;;;18.50;68.30;;;;;;5083928;28;20201;-82
2022/05/05 06:51:29;;;;;;;4.73;2.40;;;18.60;67.40;;;;;;5065674;28;20276;-82
2022/05/05 06:53:57;;;;;;;6.60;2.40;;;18.70;67.20;;;;;;5076383;28;20189;-82
2022/05/05 06:56:27;;;;;;;4.47;2.20;;;18.90;66.30;;;;;;5083564;28;20916;-82
2022/05/05 06:58:56;;;;;;;4.57;2.20;;;19.00;66.20;;;;;;5067685;28;20191;-81
2022/05/05 07:07:13;;;;;;;2.07;1.50;;;19.20;60.40;;;;;;5009585;28;20218;-81
2022/05/05 07:12:29;;;;;;;5.50;2.47;;;19.40;58.70;;;;;;5046898;28;20182;-81
2022/05/05 07:14:58;;;;;;;6.93;2.40;;;19.40;59.10;;;;;;5062610;28;20241;-80
2022/05/05 07:17:28;;;;;;;7.60;2.07;;;19.50;59.00;;;;;;5083366;28;20192;-81
2022/05/05 07:19:56;;;;;;;6.63;1.70;;;19.50;58.50;;;;;;5084240;28;20201;-83
2022/05/05 07:22:25;;;;;;;4.13;1.90;;;19.60;57.40;;;;;;5067553;28;20193;-81
2022/05/05 07:24:53;;;;;;;9.03;2.20;;;19.70;57.70;;;;;;5061750;28;20206;-81
2022/05/05 07:27:22;;;;;;;4.03;1.77;;;19.80;57.80;;;;;;5064072;28;20226;-81
2022/05/05 07:29:56;;;;;;;6.03;1.70;;;19.90;57.70;;;;;;5082253;28;20201;-84
2022/05/05 07:32:25;;;;;;;6.87;2.07;;;20.00;57.70;;;;;;5069785;28;20191;-80
2022/05/05 07:35:01;;;;;;;7.90;1.97;;;20.10;57.40;;;;;;5062488;28;20858;-84
2022/05/05 07:37:29;;;;;;;6.73;1.77;;;20.20;57.10;;;;;;5063229;28;20198;-82
2022/05/05 07:39:58;;;;;;;5.27;1.63;;;20.20;56.80;;;;;;5064244;28;20586;-80
2022/05/05 07:42:26;;;;;;;5.53;1.80;;;20.30;56.50;;;;;;5063067;28;20972;-82
2022/05/05 07:44:54;;;;;;;3.60;1.47;;;20.30;54.50;;;;;;5074424;28;20573;-80
2022/05/05 07:47:25;;;;;;;3.93;1.63;;;20.40;55.30;;;;;;5061771;28;20230;-81
2022/05/05 07:49:53;;;;;;;4.70;1.60;;;20.50;55.90;;;;;;5061122;28;20603;-81
2022/05/05 07:52:23;;;;;;;2.50;1.17;;;20.50;55.00;;;;;;5064028;28;20920;-82
2022/05/05 07:54:52;;;;;;;5.82;1.55;;;20.60;54.90;;;;;;5082801;28;20540;-81
2022/05/05 07:57:23;;;;;;;2.20;1.40;;;20.70;54.70;;;;;;5086413;28;20289;-81
2022/05/05 07:59:52;;;;;;;2.67;1.40;;;20.70;53.70;;;;;;5085489;28;20197;-82
2022/05/05 08:02:21;;;;;;;2.05;1.20;;;20.80;52.90;;;;;;5077966;28;20191;-81
2022/05/05 08:04:54;;;;;;;2.40;1.30;;;20.90;53.20;;;;;;5065988;28;20187;-82
2022/05/05 08:07:24;;;;;;;2.55;1.20;;;21.00;52.20;;;;;;5066525;28;20554;-81
2022/05/05 08:09:57;;;;;;;4.43;1.50;;;21.00;52.90;;;;;;5067240;28;20186;-80
2022/05/05 08:12:28;;;;;;;3.13;1.30;;;21.10;52.10;;;;;;5073962;28;20183;-83
2022/05/05 08:14:57;;;;;;;3.47;1.20;;;21.10;51.00;;;;;;5078856;28;20229;-81
2022/05/05 08:17:26;;;;;;;2.58;1.33;;;21.10;51.20;;;;;;5086448;28;20198;-82
2022/05/05 08:19:54;;;;;;;5.18;1.60;;;21.10;52.00;;;;;;5085377;28;20196;-83
2022/05/05 08:22:24;;;;;;;4.57;1.65;;;21.10;51.40;;;;;;5083257;28;20205;-79
2022/05/05 08:30:30;;;;;;;2.67;1.48;;;21.20;50.40;;;;;;5080050;28;20186;-84
2022/05/05 08:32:59;;;;;;;6.63;1.65;;;21.20;50.50;;;;;;5084102;28;20185;-80
2022/05/05 08:35:28;;;;;;;7.18;1.70;;;21.20;48.90;;;;;;5065224;28;20904;-80
2022/05/05 08:37:58;;;;;;;4.95;1.73;;;21.30;49.10;;;;;;5061257;28;20198;-81
2022/05/05 08:40:28;;;;;;;3.08;1.35;;;21.30;50.00;;;;;;5053723;28;20201;-83
2022/05/05 08:42:57;;;;;;;3.33;1.30;;;21.40;49.30;;;;;;5056402;28;20608;-83
2022/05/05 08:45:33;;;;;;;4.13;1.45;;;21.40;49.50;;;;;;5060379;28;20198;-83
2022/05/05 08:48:05;;;;;;;5.75;1.50;;;21.50;48.70;;;;;;5064456;28;20325;-84
2022/05/05 08:50:34;;;;;;;2.97;1.30;;;21.60;48.90;;;;;;5062482;28;20179;-83
2022/05/05 08:53:05;;;;;;;4.55;1.30;;;21.60;49.00;;;;;;5052802;28;21018;-82
2022/05/05 08:55:35;;;;;;;6.25;1.60;;;21.60;49.30;;;;;;5055730;28;20199;-78
2022/05/05 08:58:04;;;;;;;4.22;1.30;;;21.70;49.10;;;;;;5062051;28;20198;-79
2022/05/05 09:00:34;;;;;;;2.85;1.30;;;21.70;47.70;;;;;;5053431;28;20197;-82
2022/05/05 09:03:04;;;;;;;3.35;1.20;;;21.80;48.20;;;;;;5054659;28;20209;-82
2022/05/05 09:05:52;;;;;;;3.05;1.33;;;21.80;48.30;;;;;;5057259;28;20190;-85
2022/05/05 09:08:30;;;;;;;4.45;2.08;;;21.90;48.50;;;;;;5056744;28;20222;-82
2022/05/05 09:11:01;;;;;;;4.72;1.20;;;21.90;47.30;;;;;;5059214;28;20221;-82
2022/05/05 09:13:31;;;;;;;2.28;1.10;;;22.00;47.30;;;;;;5058028;28;20230;-80
2022/05/05 09:16:02;;;;;;;3.22;1.13;;;22.00;47.30;;;;;;5061410;28;20275;-83
2022/05/05 09:18:34;;;;;;;2.45;1.05;;;22.00;46.00;;;;;;5055362;28;20179;-86
2022/05/05 09:21:05;;;;;;;3.33;1.20;;;22.10;46.50;;;;;;5065469;28;20195;-79
2022/05/05 09:24:34;;;;;;;3.67;1.33;;;22.10;46.50;;;;;;5058800;28;20640;-76
2022/05/05 09:26:28;;;;;;;3.78;1.00;;;22.20;45.10;;;;;;5049750;28;20859;-82
2022/05/05 09:28:57;;;;;;;3.40;1.50;;;22.10;43.90;;;;;;5059788;28;20225;-81
2022/05/05 09:31:28;;;;;;;3.88;1.58;;;22.20;44.80;;;;;;5053053;28;20809;-82
2022/05/05 09:33:57;;;;;;;2.20;1.15;;;22.30;45.40;;;;;;5058128;28;20301;-85
2022/05/05 09:36:27;;;;;;;3.38;1.52;;;22.30;44.90;;;;;;5053726;28;20190;-85
2022/05/05 09:39:00;;;;;;;4.65;1.45;;;22.40;45.80;;;;;;5058131;28;20194;-86
2022/05/05 09:41:30;;;;;;;5.03;1.45;;;22.40;45.30;;;;;;5047821;28;20226;-81
2022/05/05 09:44:00;;;;;;;5.05;1.80;;;22.40;45.60;;;;;;5061517;28;20649;-86
2022/05/05 09:46:34;;;;;;;3.40;1.55;;;22.50;46.00;;;;;;5050838;28;20264;-80
2022/05/05 09:49:08;;;;;;;5.22;1.35;;;22.60;45.40;;;;;;5050161;28;21246;-80
2022/05/05 09:51:40;;;;;;;3.13;1.20;;;22.60;45.20;;;;;;5055627;28;20186;-82
2022/05/05 09:59:48;;;;;;;2.15;1.23;;;22.90;45.10;;;;;;5055818;28;20684;-82
2022/05/05 10:05:11;;;;;;;5.22;1.27;;;23.00;45.20;;;;;;5060625;28;20191;-81
2022/05/05 10:07:44;;;;;;;2.95;1.45;;;23.00;43.30;;;;;;5062183;28;20201;-83
2022/05/05 10:10:17;;;;;;;2.33;1.10;;;23.10;43.90;;;;;;5055622;28;20238;-80
2022/05/05 10:12:50;;;;;;;4.57;1.95;;;23.10;44.00;;;;;;5063755;28;20249;-84
2022/05/05 10:15:20;;;;;;;3.17;1.30;;;23.10;41.70;;;;;;5063886;28;20201;-80
2022/05/05 10:18:08;;;;;;;4.50;1.20;;;23.10;43.20;;;;;;5065568;28;20186;-81
2022/05/05 10:20:38;;;;;;;2.13;1.17;;;23.10;43.90;;;;;;5062035;28;20723;-79
2022/05/05 10:23:20;;;;;;;6.72;1.40;;;23.20;43.90;;;;;;5045313;28;20216;-85
2022/05/05 10:25:54;;;;;;;2.83;1.20;;;23.20;43.80;;;;;;5053223;28;20644;-85
2022/05/05 10:28:47;;;;;;;3.63;1.55;;;23.20;44.20;;;;;;5064462;28;20199;-77
2022/05/05 10:31:44;;;;;;;3.67;1.45;;;23.20;44.30;;;;;;5061831;28;20188;-81
2022/05/05 10:34:19;;;;;;;7.00;1.63;;;23.30;44.80;;;;;;5063503;28;20194;-80
2022/05/05 10:37:05;;;;;;;5.53;1.77;;;23.30;44.90;;;;;;5062928;28;20191;-80
2022/05/05 10:39:44;;;;;;;5.30;1.80;;;23.30;45.30;;;;;;5060591;28;20699;-84
2022/05/05 10:42:15;;;;;;;2.50;1.20;;;23.30;46.00;;;;;;5063101;28;20197;-81
2022/05/05 10:45:05;;;;;;;4.35;1.70;;;23.40;45.50;;;;;;5066231;28;20190;-77
2022/05/05 10:48:17;;;;;;;5.40;1.90;;;23.40;45.20;;;;;;5067100;28;20234;-80
2022/05/05 10:50:53;;;;;;;3.92;1.50;;;23.40;45.10;;;;;;5063501;28;20577;-77
2022/05/05 10:53:40;;;;;;;4.97;1.77;;;23.40;44.80;;;;;;5051826;28;20222;-78
2022/05/05 10:56:30;;;;;;;3.42;1.80;;;23.50;45.60;;;;;;5064057;28;20190;-75
2022/05/05 10:59:06;;;;;;;4.05;1.63;;;23.50;46.00;;;;;;5073128;28;20183;-76
2022/05/05 11:01:58;;;;;;;3.40;1.73;;;23.50;45.60;;;;;;5063217;28;20196;-79
2022/05/05 11:04:32;;;;;;;7.30;1.48;;;23.60;45.50;;;;;;5043668;28;20191;-78
2022/05/05 11:07:38;;;;;;;4.63;1.73;;;23.60;46.00;;;;;;5059972;28;20639;-79
2022/05/05 11:10:08;;;;;;;4.30;1.70;;;23.60;45.70;;;;;;5073587;28;20236;-79
2022/05/05 11:12:40;;;;;;;2.97;1.40;;;23.60;46.00;;;;;;5070287;28;20183;-79
2022/05/05 11:23:45;;;;;;;3.65;1.50;;;23.70;44.30;;;;;;5023720;28;20245;-76
2022/05/05 11:26:16;;;;;;;4.50;1.70;;;23.70;45.00;;;;;;5029611;28;20285;-81
2022/05/05 11:28:47;;;;;;;1.80;1.15;;;23.70;44.60;;;;;;5013607;28;20188;-76
2022/05/05 11:31:24;;;;;;;3.08;1.58;;;23.80;44.60;;;;;;5009615;28;20549;-75
2022/05/05 11:33:54;;;;;;;5.00;1.40;;;23.80;43.50;;;;;;5022165;28;20220;-76
2022/05/05 11:36:27;;;;;;;3.33;1.40;;;23.90;42.90;;;;;;5029213;28;20195;-79
2022/05/05 11:38:56;;;;;;;2.28;1.30;;;24.00;43.70;;;;;;5017164;28;20189;-78
2022/05/05 11:41:25;;;;;;;3.15;1.67;;;24.00;42.90;;;;;;5008481;28;20224;-79
2022/05/05 11:46:41;;;;;;;8.60;1.80;;;24.20;43.40;;;;;;5011361;28;20195;-78
2022/05/05 11:49:10;;;;;;;3.95;1.38;;;24.20;43.70;;;;;;5021789;28;20228;-76
2022/05/05 11:51:38;;;;;;;5.22;1.40;;;24.20;44.10;;;;;;5026332;28;20203;-80
2022/05/05 11:54:09;;;;;;;5.65;1.67;;;24.30;43.60;;;;;;5022292;28;20196;-77
2022/05/05 11:56:43;;;;;;;5.57;1.70;;;24.30;43.70;;;;;;5020616;28;20203;-77
2022/05/05 12:02:06;;;;;;;4.20;1.38;;;24.50;43.30;;;;;;5028960;28;20191;-76
2022/05/05 12:04:36;;;;;;;4.85;1.60;;;24.50;43.20;;;;;;5027882;28;20199;-75
2022/05/05 12:07:06;;;;;;;2.65;1.45;;;24.60;44.30;;;;;;5011580;28;20219;-76
2022/05/05 12:09:35;;;;;;;4.18;1.80;;;24.70;43.40;;;;;;5020694;28;20219;-79
2022/05/05 12:12:16;;;;;;;4.55;1.90;;;24.80;43.40;;;;;;5025546;28;20203;-77
2022/05/05 12:14:46;;;;;;;4.80;1.83;;;24.70;43.60;;;;;;5055144;28;20213;-79
2022/05/05 12:17:19;;;;;;;6.75;1.70;;;24.70;43.20;;;;;;5062086;28;20786;-78
2022/05/05 12:19:51;;;;;;;8.77;1.77;;;24.60;43.00;;;;;;5063256;28;20198;-76
2022/05/05 12:22:28;;;;;;;3.80;1.95;;;24.60;42.90;;;;;;5071670;28;20179;-76
2022/05/05 12:25:01;;;;;;;8.20;1.92;;;24.60;42.90;;;;;;5064733;28;20206;-77
2022/05/05 12:27:30;;;;;;;3.78;1.77;;;24.50;42.70;;;;;;5073917;28;20182;-77
2022/05/05 12:29:59;;;;;;;5.20;1.60;;;24.50;43.10;;;;;;5062456;28;20695;-75
2022/05/05 12:32:29;;;;;;;8.35;1.70;;;24.60;43.10;;;;;;5067919;28;20213;-78
2022/05/05 12:35:06;;;;;;;3.58;1.50;;;24.60;43.00;;;;;;5056626;28;20775;-79
2022/05/05 12:37:34;;;;;;;4.82;1.92;;;24.60;42.60;;;;;;5046121;28;20183;-78
2022/05/05 12:40:04;;;;;;;5.28;1.80;;;24.60;42.30;;;;;;5082273;28;20201;-78
2022/05/05 12:42:43;;;;;;;5.22;1.77;;;24.70;42.60;;;;;;5049634;28;20683;-78
2022/05/05 12:45:18;;;;;;;6.60;2.10;;;24.70;42.20;;;;;;5059394;28;20528;-75
2022/05/05 12:47:53;;;;;;;3.10;1.55;;;24.80;42.50;;;;;;5062518;28;20234;-78
2022/05/05 12:50:29;;;;;;;3.83;1.48;;;24.80;42.20;;;;;;5060140;28;20232;-79
2022/05/05 13:01:23;;;;;;;4.22;2.00;;;24.80;42.10;;;;;;5063885;28;20198;-77
2022/05/05 13:03:54;;;;;;;4.53;2.13;;;24.90;42.10;;;;;;5055587;28;20197;-80
2022/05/05 13:06:23;;;;;;;3.08;1.70;;;24.90;41.70;;;;;;5065328;28;20186;-79
2022/05/05 13:08:52;;;;;;;2.97;1.63;;;24.80;41.20;;;;;;5065599;28;20194;-79
2022/05/05 13:11:22;;;;;;;4.30;1.58;;;24.80;41.50;;;;;;5062626;28;20222;-80
2022/05/05 13:13:51;;;;;;;3.35;1.50;;;24.80;41.50;;;;;;5058634;28;20226;-80
2022/05/05 13:16:27;;;;;;;3.13;1.40;;;24.90;41.70;;;;;;5067478;28;20220;-78
2022/05/05 13:18:58;;;;;;;4.68;1.52;;;24.90;41.50;;;;;;5065886;28;20865;-82
2022/05/05 13:21:27;;;;;;;3.70;1.55;;;24.90;42.00;;;;;;5064720;28;20189;-79
2022/05/05 13:23:56;;;;;;;3.28;1.63;;;25.00;41.90;;;;;;5060505;28;20198;-78
2022/05/05 13:26:24;;;;;;;2.83;1.50;;;25.00;41.10;;;;;;5066632;28;20195;-77
2022/05/05 13:28:53;;;;;;;4.65;1.60;;;25.10;41.50;;;;;;5066999;28;20205;-78
2022/05/05 13:31:21;;;;;;;2.70;1.75;;;25.10;41.50;;;;;;5060441;28;20228;-81
2022/05/05 13:33:50;;;;;;;4.40;1.73;;;25.20;41.40;;;;;;5063156;28;20194;-79
2022/05/05 13:36:20;;;;;;;4.53;1.48;;;25.20;41.30;;;;;;5060167;28;20195;-76
2022/05/05 13:38:49;;;;;;;4.68;1.63;;;25.20;41.30;;;;;;5054473;28;20187;-78
2022/05/05 13:41:32;;;;;;;2.75;1.40;;;25.20;41.10;;;;;;5049286;28;20183;-77
2022/05/05 13:44:01;;;;;;;3.35;1.58;;;25.20;41.10;;;;;;5051822;28;20210;-78
2022/05/05 13:46:30;;;;;;;4.32;1.40;;;25.20;41.00;;;;;;5060289;28;20194;-75
2022/05/05 13:48:59;;;;;;;3.03;1.48;;;25.30;40.90;;;;;;5066812;28;20198;-76
2022/05/05 13:51:28;;;;;;;3.50;1.60;;;25.30;41.60;;;;;;5069536;28;20245;-76
2022/05/05 13:53:57;;;;;;;2.47;1.35;;;25.30;41.10;;;;;;5062088;28;20186;-76
2022/05/05 13:56:25;;;;;;;5.68;1.65;;;25.20;41.00;;;;;;5057930;28;20190;-75
2022/05/05 13:58:54;;;;;;;5.30;1.77;;;25.20;40.30;;;;;;5048057;28;20206;-76
2022/05/05 14:01:22;;;;;;;5.38;1.80;;;25.20;40.70;;;;;;5057224;28;20195;-77